createdAt,value
2023-05-16T00:00:20.033Z,99353.53
2023-05-16T00:01:19.289Z,99355.75
2023-05-16T00:01:53.342Z,99335.94
2023-05-16T00:02:33.616Z,99341.69
2023-05-16T00:03:14.565Z,99350.53
2023-05-16T00:03:54.369Z,99352.19
2023-05-16T00:04:35.602Z,99362.03
2023-05-16T00:05:17.264Z,99349.69
2023-05-16T00:06:11.226Z,99334.44
2023-05-16T00:07:05.239Z,99347.84
2023-05-16T00:07:54.235Z,99335.28
2023-05-16T00:08:28.401Z,99338.00
2023-05-16T00:09:15.246Z,99346.09
2023-05-16T00:09:49.327Z,99331.22
2023-05-16T00:10:36.220Z,99345.44
2023-05-16T00:11:10.391Z,99347.50
2023-05-16T00:11:58.246Z,99346.81
2023-05-16T00:12:33.074Z,99338.69
2023-05-16T00:13:13.259Z,99333.06
2023-05-16T00:13:53.385Z,99326.94
2023-05-16T00:14:34.234Z,99323.44
2023-05-16T00:15:16.647Z,99329.19
2023-05-16T00:15:56.256Z,99341.69
2023-05-16T00:16:37.062Z,99330.22
2023-05-16T00:17:18.236Z,99326.81
2023-05-16T00:18:01.294Z,99334.63
2023-05-16T00:18:45.330Z,99347.63
2023-05-16T00:19:26.669Z,99332.91
2023-05-16T00:20:06.209Z,99341.38
2023-05-16T00:20:46.338Z,99349.84
2023-05-16T00:21:26.213Z,99328.53
2023-05-16T00:22:06.433Z,99335.31
2023-05-16T00:22:47.240Z,99323.44
2023-05-16T00:23:27.314Z,99344.13
2023-05-16T00:24:10.249Z,99342.72
2023-05-16T00:24:50.351Z,99351.56
2023-05-16T00:25:31.235Z,99331.38
2023-05-16T00:26:11.360Z,99354.09
2023-05-16T00:26:51.207Z,99335.63
2023-05-16T00:27:31.349Z,99347.13
2023-05-16T00:28:12.230Z,99341.22
2023-05-16T00:28:52.330Z,99350.19
2023-05-16T00:29:33.262Z,99349.69
2023-05-16T00:30:14.367Z,99349.53
2023-05-16T00:30:55.258Z,99353.72
2023-05-16T00:31:35.659Z,99348.19
2023-05-16T00:32:16.507Z,99342.38
2023-05-16T00:32:56.527Z,99333.75
2023-05-16T00:33:37.207Z,99339.00
2023-05-16T00:34:17.430Z,99362.09
2023-05-16T00:34:57.267Z,99338.03
2023-05-16T00:35:37.363Z,99335.97
2023-05-16T00:36:22.971Z,99351.56
2023-05-16T00:37:07.356Z,99349.53
2023-05-16T00:37:48.219Z,99339.88
2023-05-16T00:38:28.508Z,99350.38
2023-05-16T00:39:08.221Z,99349.69
2023-05-16T00:39:49.923Z,99339.84
2023-05-16T00:40:31.227Z,99343.78
2023-05-16T00:41:11.296Z,99352.59
2023-05-16T00:41:52.266Z,99353.94
2023-05-16T00:42:32.443Z,99354.31
2023-05-16T00:43:12.238Z,99356.31
2023-05-16T00:43:52.368Z,99344.81
2023-05-16T00:44:33.192Z,99343.78
2023-05-16T00:45:14.335Z,99339.72
2023-05-16T00:45:54.344Z,99359.38
2023-05-16T00:46:34.377Z,99335.66
2023-05-16T00:47:14.204Z,99360.06
2023-05-16T00:47:55.463Z,99346.84
2023-05-16T00:48:36.203Z,99352.63
2023-05-16T00:49:19.384Z,99337.34
2023-05-16T00:50:00.247Z,99354.31
2023-05-16T00:50:41.318Z,99356.69
2023-05-16T00:51:21.220Z,99356.31
2023-05-16T00:52:01.326Z,99361.25
2023-05-16T00:52:42.191Z,99348.91
2023-05-16T00:53:26.308Z,99367.53
2023-05-16T00:54:07.224Z,99351.78
2023-05-16T00:54:47.317Z,99362.63
2023-05-16T00:55:28.193Z,99361.59
2023-05-16T00:56:09.334Z,99363.78
2023-05-16T00:56:50.225Z,99362.06
2023-05-16T00:57:30.406Z,99363.63
2023-05-16T00:58:12.186Z,99374.31
2023-05-16T00:58:52.271Z,99346.19
2023-05-16T00:59:33.214Z,99348.53
2023-05-16T01:00:19.836Z,99348.56
2023-05-16T01:01:01.235Z,99351.25
2023-05-16T01:01:42.437Z,99365.16
2023-05-16T01:02:23.250Z,99361.25
2023-05-16T01:03:04.759Z,99364.47
2023-05-16T01:03:46.308Z,99348.03
2023-05-16T01:04:26.497Z,99380.75
2023-05-16T01:05:08.253Z,99369.38
2023-05-16T01:05:49.814Z,99360.56
2023-05-16T01:06:30.178Z,99367.16
2023-05-16T01:07:10.434Z,99355.69
2023-05-16T01:07:50.299Z,99347.22
2023-05-16T01:08:30.313Z,99367.84
2023-05-16T01:09:11.220Z,99357.56
2023-05-16T01:09:51.328Z,99372.78
2023-05-16T01:10:33.175Z,99367.19
2023-05-16T01:11:29.344Z,99377.03
2023-05-16T01:12:23.181Z,99373.97
2023-05-16T01:13:33.236Z,99363.78
2023-05-16T01:15:18.483Z,99380.38
2023-05-16T01:16:26.192Z,99361.94
2023-05-16T01:17:51.223Z,99380.41
2023-05-16T01:18:58.871Z,99383.31
2023-05-16T01:20:23.191Z,99379.25
2023-05-16T01:21:30.183Z,99368.56
2023-05-16T01:22:54.194Z,99387.03
2023-05-16T01:24:38.185Z,99393.47
2023-05-16T01:25:59.166Z,99387.72
2023-05-16T01:26:54.200Z,99365.19
2023-05-16T01:27:49.209Z,99374.00
2023-05-16T01:28:44.168Z,99365.03
2023-05-16T01:29:38.212Z,99375.28
2023-05-16T01:30:33.179Z,99378.72
2023-05-16T01:31:27.203Z,99379.09
2023-05-16T01:32:21.200Z,99385.00
2023-05-16T01:33:15.231Z,99372.78
2023-05-16T01:34:09.156Z,99376.34
2023-05-16T01:34:58.174Z,99356.50
2023-05-16T01:35:32.252Z,99368.53
2023-05-16T01:37:16.144Z,99377.69
2023-05-16T01:38:27.223Z,99387.19
2023-05-16T01:39:37.185Z,99379.19
2023-05-16T01:40:24.182Z,99380.56
2023-05-16T01:41:26.143Z,99388.84
2023-05-16T01:42:28.164Z,99383.78
2023-05-16T01:43:28.127Z,99382.56
2023-05-16T01:44:36.137Z,99392.22
2023-05-16T01:45:46.141Z,99386.84
2023-05-16T01:46:48.187Z,99392.63
2023-05-16T01:47:43.203Z,99385.13
2023-05-16T01:48:44.152Z,99386.47
2023-05-16T01:49:51.134Z,99402.41
2023-05-16T01:50:50.161Z,99401.91
2023-05-16T01:51:46.136Z,99387.50
2023-05-16T01:52:54.159Z,99392.06
2023-05-16T01:53:52.156Z,99380.03
2023-05-16T01:54:47.144Z,99398.53
2023-05-16T01:55:53.165Z,99404.66
2023-05-16T01:56:47.118Z,99386.34
2023-05-16T01:57:42.137Z,99393.28
2023-05-16T01:58:40.864Z,99397.50
2023-05-16T01:59:37.148Z,99397.88
2023-05-16T02:00:28.297Z,99398.88
2023-05-16T02:01:11.223Z,99406.50
2023-05-16T02:01:51.482Z,99379.41
2023-05-16T02:02:54.155Z,99381.28
2023-05-16T02:03:49.133Z,99369.22
2023-05-16T02:04:43.116Z,99396.34
2023-05-16T02:05:37.106Z,99376.00
2023-05-16T02:06:24.199Z,99388.91
2023-05-16T02:07:04.297Z,99391.06
2023-05-16T02:07:44.129Z,99375.28
2023-05-16T02:08:26.378Z,99381.59
2023-05-16T02:09:06.132Z,99398.34
2023-05-16T02:09:46.213Z,99405.84
2023-05-16T02:10:27.153Z,99407.03
2023-05-16T02:11:07.247Z,99405.84
2023-05-16T02:11:47.210Z,99398.03
2023-05-16T02:12:28.222Z,99400.41
2023-05-16T02:13:08.155Z,99404.59
2023-05-16T02:13:48.227Z,99401.06
2023-05-16T02:14:28.122Z,99402.41
2023-05-16T02:15:08.227Z,99419.00
2023-05-16T02:15:48.136Z,99412.94
2023-05-16T02:16:29.254Z,99412.94
2023-05-16T02:17:09.209Z,99394.31
2023-05-16T02:17:49.686Z,99420.78
2023-05-16T02:18:30.159Z,99406.88
2023-05-16T02:19:10.801Z,99409.38
2023-05-16T02:19:51.107Z,99393.94
2023-05-16T02:20:32.195Z,99398.03
2023-05-16T02:21:12.106Z,99411.09
2023-05-16T02:21:52.217Z,99398.34
2023-05-16T02:22:32.144Z,99412.59
2023-05-16T02:23:12.842Z,99405.34
2023-05-16T02:23:53.104Z,99418.56
2023-05-16T02:24:34.224Z,99419.09
2023-05-16T02:25:16.123Z,99408.22
2023-05-16T02:25:56.230Z,99390.88
2023-05-16T02:26:36.148Z,99411.97
2023-05-16T02:27:16.224Z,99422.06
2023-05-16T02:27:56.123Z,99417.38
2023-05-16T02:28:37.213Z,99420.25
2023-05-16T02:29:18.093Z,99412.28
2023-05-16T02:29:58.210Z,99419.44
2023-05-16T02:30:38.155Z,99403.81
2023-05-16T02:31:18.236Z,99405.84
2023-05-16T02:31:58.115Z,99422.63
2023-05-16T02:32:39.431Z,99428.22
2023-05-16T02:33:20.161Z,99434.84
2023-05-16T02:34:00.194Z,99420.88
2023-05-16T02:34:40.122Z,99406.84
2023-05-16T02:35:20.386Z,99430.94
2023-05-16T02:36:01.134Z,99418.88
2023-05-16T02:36:42.476Z,99435.16
2023-05-16T02:37:23.085Z,99423.78
2023-05-16T02:38:04.192Z,99410.75
2023-05-16T02:38:44.113Z,99413.09
2023-05-16T02:39:24.197Z,99430.94
2023-05-16T02:40:15.109Z,99425.66
2023-05-16T02:40:49.281Z,99432.63
2023-05-16T02:41:37.113Z,99455.34
2023-05-16T02:42:13.246Z,99433.97
2023-05-16T02:43:00.117Z,99423.09
2023-05-16T02:43:34.173Z,99429.84
2023-05-16T02:44:17.113Z,99450.56
2023-05-16T02:44:57.182Z,99437.50
2023-05-16T02:45:38.103Z,99426.50
2023-05-16T02:46:33.272Z,99433.28
2023-05-16T02:47:14.087Z,99444.84
2023-05-16T02:47:54.255Z,99436.03
2023-05-16T02:48:35.114Z,99437.38
2023-05-16T02:49:15.217Z,99439.06
2023-05-16T02:49:57.132Z,99444.84
2023-05-16T02:50:37.613Z,99439.25
2023-05-16T02:51:18.103Z,99442.97
2023-05-16T02:51:58.189Z,99441.09
2023-05-16T02:52:39.108Z,99440.41
2023-05-16T02:53:19.223Z,99425.28
2023-05-16T02:54:00.149Z,99451.59
2023-05-16T02:54:40.201Z,99458.72
2023-05-16T02:55:22.252Z,99460.56
2023-05-16T02:56:06.790Z,99434.28
2023-05-16T02:56:48.136Z,99459.72
2023-05-16T02:57:29.297Z,99459.03
2023-05-16T02:58:09.146Z,99455.81
2023-05-16T02:58:50.544Z,99458.22
2023-05-16T02:59:30.079Z,99470.09
2023-05-16T03:00:11.550Z,99433.91
2023-05-16T03:00:52.109Z,99462.44
2023-05-16T03:01:32.265Z,99449.06
2023-05-16T03:02:13.220Z,99445.75
2023-05-16T03:02:53.211Z,99443.75
2023-05-16T03:03:34.243Z,99439.19
2023-05-16T03:04:14.511Z,99437.13
2023-05-16T03:04:55.082Z,99462.28
2023-05-16T03:05:35.461Z,99462.28
2023-05-16T03:06:19.109Z,99454.47
2023-05-16T03:06:59.253Z,99435.94
2023-05-16T03:07:40.097Z,99435.75
2023-05-16T03:08:20.209Z,99447.09
2023-05-16T03:09:01.084Z,99460.38
2023-05-16T03:09:41.188Z,99448.72
2023-05-16T03:10:21.095Z,99445.81
2023-05-16T03:11:01.203Z,99454.94
2023-05-16T03:11:41.105Z,99463.22
2023-05-16T03:12:21.187Z,99455.66
2023-05-16T03:13:02.079Z,99443.78
2023-05-16T03:13:42.520Z,99438.88
2023-05-16T03:14:22.084Z,99435.16
2023-05-16T03:15:02.235Z,99453.13
2023-05-16T03:15:42.050Z,99438.88
2023-05-16T03:16:22.224Z,99450.94
2023-05-16T03:17:03.142Z,99460.56
2023-05-16T03:17:43.314Z,99451.59
2023-05-16T03:18:23.073Z,99436.69
2023-05-16T03:19:03.398Z,99462.78
2023-05-16T03:19:43.081Z,99464.84
2023-05-16T03:20:26.152Z,99446.78
2023-05-16T03:21:08.098Z,99436.06
2023-05-16T03:21:48.155Z,99462.72
2023-05-16T03:22:31.099Z,99440.31
2023-05-16T03:23:12.196Z,99462.91
2023-05-16T03:23:52.114Z,99449.31
2023-05-16T03:24:32.205Z,99459.47
2023-05-16T03:25:13.086Z,99452.56
2023-05-16T03:25:53.177Z,99452.50
2023-05-16T03:26:34.111Z,99462.03
2023-05-16T03:27:15.402Z,99460.34
2023-05-16T03:27:55.101Z,99484.13
2023-05-16T03:28:35.610Z,99477.88
2023-05-16T03:29:17.057Z,99479.72
2023-05-16T03:29:57.159Z,99475.75
2023-05-16T03:30:37.058Z,99480.00
2023-05-16T03:31:17.229Z,99474.25
2023-05-16T03:31:58.101Z,99466.09
2023-05-16T03:32:39.246Z,99489.00
2023-05-16T03:33:20.164Z,99478.94
2023-05-16T03:34:00.297Z,99454.03
2023-05-16T03:34:40.071Z,99483.06
2023-05-16T03:35:20.283Z,99495.25
2023-05-16T03:36:00.064Z,99494.56
2023-05-16T03:36:40.131Z,99492.72
2023-05-16T03:37:22.093Z,99486.75
2023-05-16T03:38:02.285Z,99491.16
2023-05-16T03:38:43.079Z,99486.94
2023-05-16T03:39:24.166Z,99477.25
2023-05-16T03:40:04.060Z,99492.50
2023-05-16T03:40:44.162Z,99484.72
2023-05-16T03:41:25.071Z,99490.44
2023-05-16T03:42:05.747Z,99473.81
2023-05-16T03:42:47.035Z,99484.28
2023-05-16T03:43:27.309Z,99488.03
2023-05-16T03:44:07.079Z,99488.38
2023-05-16T03:44:47.127Z,99495.78
2023-05-16T03:45:28.223Z,99488.19
2023-05-16T03:46:09.211Z,99486.25
2023-05-16T03:46:49.040Z,99480.75
2023-05-16T03:47:31.286Z,99504.34
2023-05-16T03:48:12.108Z,99495.22
2023-05-16T03:48:52.098Z,99482.97
2023-05-16T03:49:36.044Z,99491.97
2023-05-16T03:50:16.443Z,99508.22
2023-05-16T03:50:59.053Z,99512.44
2023-05-16T03:51:39.159Z,99506.34
2023-05-16T03:52:19.042Z,99485.97
2023-05-16T03:52:59.432Z,99514.84
2023-05-16T03:53:40.073Z,99517.06
2023-05-16T03:54:20.238Z,99508.75
2023-05-16T03:55:00.060Z,99488.34
2023-05-16T03:55:40.187Z,99503.97
2023-05-16T03:56:20.062Z,99516.84
2023-05-16T03:57:00.185Z,99520.97
2023-05-16T03:57:41.101Z,99515.53
2023-05-16T03:58:24.179Z,99519.91
2023-05-16T03:59:05.064Z,99498.19
2023-05-16T03:59:45.103Z,99523.31
2023-05-16T04:00:25.039Z,99519.72
2023-05-16T04:01:05.115Z,99515.31
2023-05-16T04:01:46.082Z,99487.28
2023-05-16T04:02:49.092Z,99494.94
2023-05-16T04:03:37.088Z,99512.06
2023-05-16T04:04:10.826Z,99520.81
2023-05-16T04:04:58.024Z,99490.25
2023-05-16T04:05:38.086Z,99485.34
2023-05-16T04:06:18.297Z,99518.34
2023-05-16T04:06:58.030Z,99509.41
2023-05-16T04:07:38.233Z,99507.28
2023-05-16T04:08:18.016Z,99513.06
2023-05-16T04:08:59.557Z,99499.78
2023-05-16T04:09:40.042Z,99514.00
2023-05-16T04:10:21.571Z,99515.28
2023-05-16T04:11:02.037Z,99511.75
2023-05-16T04:11:42.169Z,99513.38
2023-05-16T04:12:22.049Z,99520.19
2023-05-16T04:13:02.142Z,99522.06
2023-05-16T04:13:43.050Z,99517.16
2023-05-16T04:14:23.091Z,99527.41
2023-05-16T04:15:03.068Z,99519.41
2023-05-16T04:15:43.137Z,99502.78
2023-05-16T04:16:23.072Z,99527.34
2023-05-16T04:17:03.318Z,99513.63
2023-05-16T04:17:45.039Z,99503.31
2023-05-16T04:18:25.211Z,99522.31
2023-05-16T04:19:06.230Z,99518.22
2023-05-16T04:19:46.184Z,99510.22
2023-05-16T04:20:26.048Z,99481.50
2023-05-16T04:21:10.866Z,99531.84
2023-05-16T04:21:52.159Z,99516.78
2023-05-16T04:22:33.125Z,99524.19
2023-05-16T04:23:13.074Z,99516.81
2023-05-16T04:23:53.127Z,99530.53
2023-05-16T04:24:35.053Z,99531.41
2023-05-16T04:25:16.251Z,99536.88
2023-05-16T04:25:57.104Z,99539.50
2023-05-16T04:26:39.999Z,99532.69
2023-05-16T04:27:20.056Z,99533.16
2023-05-16T04:28:00.133Z,99535.75
2023-05-16T04:28:41.090Z,99529.31
2023-05-16T04:29:22.163Z,99546.31
2023-05-16T04:30:03.062Z,99550.91
2023-05-16T04:30:43.131Z,99549.69
2023-05-16T04:31:24.049Z,99550.25
2023-05-16T04:32:04.278Z,99546.88
2023-05-16T04:32:45.062Z,99545.00
2023-05-16T04:33:26.087Z,99556.56
2023-05-16T04:34:06.002Z,99546.81
2023-05-16T04:34:47.856Z,99544.28
2023-05-16T04:35:29.120Z,99551.28
2023-05-16T04:36:14.579Z,99543.31
2023-05-16T04:36:55.008Z,99528.00
2023-05-16T04:37:36.262Z,99528.72
2023-05-16T04:38:16.121Z,99541.63
2023-05-16T04:38:56.258Z,99555.69
2023-05-16T04:39:36.053Z,99554.78
2023-05-16T04:40:17.351Z,99532.75
2023-05-16T04:41:00.972Z,99545.19
2023-05-16T04:41:42.435Z,99532.59
2023-05-16T04:42:24.008Z,99554.16
2023-05-16T04:43:04.304Z,99555.19
2023-05-16T04:43:45.126Z,99556.00
2023-05-16T04:44:25.124Z,99532.78
2023-05-16T04:45:05.075Z,99556.31
2023-05-16T04:45:46.839Z,99545.66
2023-05-16T04:46:27.094Z,99553.50
2023-05-16T04:47:07.379Z,99557.25
2023-05-16T04:47:48.093Z,99551.44
2023-05-16T04:48:28.235Z,99552.00
2023-05-16T04:49:08.145Z,99560.47
2023-05-16T04:49:49.221Z,99573.31
2023-05-16T04:50:28.994Z,99571.81
2023-05-16T04:51:09.103Z,99561.09
2023-05-16T04:51:50.031Z,99572.13
2023-05-16T04:52:30.475Z,99564.44
2023-05-16T04:53:11.004Z,99562.78
2023-05-16T04:53:52.125Z,99565.00
2023-05-16T04:54:33.065Z,99571.72
2023-05-16T04:55:14.153Z,99569.75
2023-05-16T04:55:54.037Z,99577.34
2023-05-16T04:56:34.249Z,99576.31
2023-05-16T04:57:14.001Z,99587.69
2023-05-16T04:57:55.250Z,99579.22
2023-05-16T04:58:35.042Z,99580.16
2023-05-16T04:59:15.227Z,99585.66
2023-05-16T04:59:55.024Z,99586.22
2023-05-16T05:00:36.261Z,99584.72
2023-05-16T05:01:16.103Z,99575.13
2023-05-16T05:01:57.165Z,99585.66
2023-05-16T05:02:37.022Z,99587.91
2023-05-16T05:03:18.005Z,99594.94
2023-05-16T05:03:58.066Z,99583.31
2023-05-16T05:04:38.270Z,99591.81
2023-05-16T05:05:19.165Z,99598.31
2023-05-16T05:06:00.250Z,99610.53
2023-05-16T05:06:39.990Z,99604.94
2023-05-16T05:07:20.112Z,99607.78
2023-05-16T05:08:01.026Z,99609.59
2023-05-16T05:08:41.266Z,99607.66
2023-05-16T05:09:21.104Z,99593.25
2023-05-16T05:10:02.283Z,99609.56
2023-05-16T05:10:43.052Z,99611.44
2023-05-16T05:11:23.273Z,99620.06
2023-05-16T05:12:03.426Z,99614.00
2023-05-16T05:12:43.134Z,99615.84
2023-05-16T05:13:22.987Z,99619.09
2023-05-16T05:14:05.055Z,99586.19
2023-05-16T05:14:45.082Z,99612.66
2023-05-16T05:15:25.298Z,99616.56
2023-05-16T05:16:06.074Z,99602.47
2023-05-16T05:16:47.139Z,99605.91
2023-05-16T05:17:28.200Z,99603.84
2023-05-16T05:18:09.283Z,99621.97
2023-05-16T05:18:52.039Z,99608.75
2023-05-16T05:19:33.159Z,99603.84
2023-05-16T05:20:15.435Z,99605.19
2023-05-16T05:20:55.237Z,99607.94
2023-05-16T05:21:37.045Z,99585.19
2023-05-16T05:22:21.174Z,99590.13
2023-05-16T05:23:00.988Z,99596.41
2023-05-16T05:23:41.180Z,99586.03
2023-05-16T05:24:20.973Z,99597.91
2023-05-16T05:25:03.715Z,99587.41
2023-05-16T05:25:51.046Z,99589.94
2023-05-16T05:26:26.303Z,99571.25
2023-05-16T05:27:07.102Z,99588.91
2023-05-16T05:27:47.101Z,99583.53
2023-05-16T05:28:28.055Z,99577.44
2023-05-16T05:29:08.163Z,99591.69
2023-05-16T05:29:49.028Z,99573.13
2023-05-16T05:30:29.400Z,99576.03
2023-05-16T05:31:14.609Z,99581.44
2023-05-16T05:31:55.228Z,99593.53
2023-05-16T05:32:39.233Z,99593.19
2023-05-16T05:33:39.186Z,99590.91
2023-05-16T05:34:33.044Z,99587.22
2023-05-16T05:35:27.218Z,99602.84
2023-05-16T05:36:26.091Z,99611.81
2023-05-16T05:37:20.063Z,99627.56
2023-05-16T05:38:04.353Z,99625.03
2023-05-16T05:38:47.216Z,99626.09
2023-05-16T05:39:28.046Z,99616.22
2023-05-16T05:40:10.369Z,99628.81
2023-05-16T05:40:53.002Z,99626.59
2023-05-16T05:41:33.177Z,99630.31
2023-05-16T05:43:23.062Z,99644.91
2023-05-16T05:44:18.988Z,99635.44
2023-05-16T05:45:12.963Z,99652.50
2023-05-16T05:46:08.967Z,99641.84
2023-05-16T05:47:04.099Z,99642.66
2023-05-16T05:47:58.037Z,99639.44
2023-05-16T05:48:45.194Z,99647.13
2023-05-16T05:49:19.092Z,99630.69
2023-05-16T05:50:06.949Z,99634.78
2023-05-16T05:50:41.397Z,99635.56
2023-05-16T05:51:27.929Z,99638.75
2023-05-16T05:52:02.045Z,99648.63
2023-05-16T05:52:49.987Z,99649.38
2023-05-16T05:53:24.062Z,99625.94
2023-05-16T05:54:04.970Z,99652.44
2023-05-16T05:54:46.053Z,99632.91
2023-05-16T05:55:48.995Z,99667.03
2023-05-16T05:56:29.099Z,99646.50
2023-05-16T05:57:08.951Z,99662.63
2023-05-16T05:57:49.037Z,99660.22
2023-05-16T05:58:29.959Z,99672.09
2023-05-16T05:59:17.047Z,99669.75
2023-05-16T06:00:12.020Z,99670.06
2023-05-16T06:01:08.959Z,99670.59
2023-05-16T06:03:06.991Z,99681.66
2023-05-16T06:04:02.174Z,99668.06
2023-05-16T06:04:42.999Z,99655.88
2023-05-16T06:05:23.820Z,99673.53
2023-05-16T06:06:06.131Z,99677.09
2023-05-16T06:06:49.116Z,99660.63
2023-05-16T06:07:29.958Z,99684.06
2023-05-16T06:08:10.849Z,99667.91
2023-05-16T06:08:50.951Z,99671.13
2023-05-16T06:09:31.143Z,99684.56
2023-05-16T06:10:13.003Z,99674.91
2023-05-16T06:10:54.464Z,99678.44
2023-05-16T06:11:35.965Z,99668.25
2023-05-16T06:12:16.965Z,99678.34
2023-05-16T06:12:57.951Z,99671.69
2023-05-16T06:13:38.056Z,99675.97
2023-05-16T06:14:18.934Z,99675.25
2023-05-16T06:15:01.272Z,99671.22
2023-05-16T06:15:42.108Z,99656.63
2023-05-16T06:16:22.091Z,99694.13
2023-05-16T06:17:02.046Z,99682.72
2023-05-16T06:17:42.265Z,99687.88
2023-05-16T06:18:22.039Z,99694.63
2023-05-16T06:19:02.140Z,99693.13
2023-05-16T06:19:42.952Z,99686.81
2023-05-16T06:20:23.039Z,99687.50
2023-05-16T06:21:03.013Z,99691.59
2023-05-16T06:21:43.396Z,99691.25
2023-05-16T06:22:22.920Z,99693.81
2023-05-16T06:23:19.308Z,99687.00
2023-05-16T06:24:15.960Z,99692.75
2023-05-16T06:25:09.920Z,99696.50
2023-05-16T06:26:04.968Z,99675.13
2023-05-16T06:26:58.926Z,99681.72
2023-05-16T06:27:52.906Z,99685.66
2023-05-16T06:28:46.944Z,99676.31
2023-05-16T06:29:40.967Z,99681.41
2023-05-16T06:30:35.049Z,99674.94
2023-05-16T06:31:22.148Z,99685.66
2023-05-16T06:31:56.115Z,99685.13
2023-05-16T06:32:43.995Z,99685.47
2023-05-16T06:33:18.137Z,99692.97
2023-05-16T06:34:04.967Z,99686.84
2023-05-16T06:34:39.064Z,99682.25
2023-05-16T06:35:26.092Z,99697.81
2023-05-16T06:36:00.133Z,99690.19
2023-05-16T06:36:46.975Z,99678.00
2023-05-16T06:37:21.244Z,99691.19
2023-05-16T06:38:08.024Z,99693.63
2023-05-16T06:38:42.026Z,99689.53
2023-05-16T06:39:28.967Z,99678.69
2023-05-16T06:40:03.345Z,99693.97
2023-05-16T06:40:49.912Z,99690.22
2023-05-16T06:41:29.252Z,99678.53
2023-05-16T06:42:09.035Z,99686.16
2023-05-16T06:42:49.117Z,99699.72
2023-05-16T06:43:29.949Z,99682.75
2023-05-16T06:44:10.043Z,99699.56
2023-05-16T06:44:49.965Z,99696.84
2023-05-16T06:45:31.172Z,99677.50
2023-05-16T06:46:12.054Z,99705.84
2023-05-16T06:46:52.136Z,99708.06
2023-05-16T06:47:33.083Z,99691.59
2023-05-16T06:48:15.721Z,99703.47
2023-05-16T06:48:55.963Z,99703.16
2023-05-16T06:49:36.237Z,99709.56
2023-05-16T06:50:19.935Z,99706.19
2023-05-16T06:51:00.061Z,99694.28
2023-05-16T06:51:41.975Z,99707.53
2023-05-16T06:52:22.101Z,99701.09
2023-05-16T06:53:02.021Z,99707.22
2023-05-16T06:53:42.181Z,99685.81
2023-05-16T06:54:22.953Z,99698.03
2023-05-16T06:55:03.060Z,99690.72
2023-05-16T06:55:43.964Z,99701.41
2023-05-16T06:56:25.271Z,99684.63
2023-05-16T06:57:04.924Z,99700.22
2023-05-16T06:57:45.035Z,99700.41
2023-05-16T06:58:24.963Z,99698.34
2023-05-16T06:59:05.057Z,99700.56
2023-05-16T06:59:45.990Z,99720.59
2023-05-16T07:00:30.203Z,99717.19
2023-05-16T07:01:09.976Z,99724.13
2023-05-16T07:01:50.139Z,99702.72
2023-05-16T07:02:30.048Z,99720.22
2023-05-16T07:03:10.102Z,99711.03
2023-05-16T07:03:51.095Z,99727.00
2023-05-16T07:04:31.197Z,99698.00
2023-05-16T07:05:11.991Z,99705.81
2023-05-16T07:05:53.043Z,99731.97
2023-05-16T07:06:33.928Z,99727.03
2023-05-16T07:07:14.196Z,99728.91
2023-05-16T07:07:55.940Z,99735.03
2023-05-16T07:08:37.058Z,99738.25
2023-05-16T07:09:17.986Z,99712.94
2023-05-16T07:09:58.042Z,99731.28
2023-05-16T07:10:38.177Z,99727.03
2023-05-16T07:11:18.122Z,99736.41
2023-05-16T07:11:58.932Z,99730.25
2023-05-16T07:12:39.206Z,99732.66
2023-05-16T07:13:19.967Z,99740.13
2023-05-16T07:14:00.016Z,99716.03
2023-05-16T07:14:42.057Z,99743.53
2023-05-16T07:15:22.126Z,99732.47
2023-05-16T07:16:04.054Z,99746.03
2023-05-16T07:16:44.423Z,99751.47
2023-05-16T07:17:26.005Z,99752.31
2023-05-16T07:18:06.124Z,99752.84
2023-05-16T07:18:47.026Z,99746.88
2023-05-16T07:19:27.175Z,99759.50
2023-05-16T07:20:07.963Z,99760.66
2023-05-16T07:20:48.487Z,99734.31
2023-05-16T07:21:31.955Z,99750.91
2023-05-16T07:22:13.441Z,99748.56
2023-05-16T07:22:53.898Z,99757.41
2023-05-16T07:23:34.032Z,99747.69
2023-05-16T07:24:14.921Z,99744.19
2023-05-16T07:24:57.192Z,99743.84
2023-05-16T07:25:37.945Z,99755.53
2023-05-16T07:26:20.457Z,99737.31
2023-05-16T07:27:00.908Z,99729.00
2023-05-16T07:27:45.171Z,99738.72
2023-05-16T07:28:25.940Z,99755.88
2023-05-16T07:29:05.977Z,99750.59
2023-05-16T07:29:47.897Z,99748.56
2023-05-16T07:30:28.050Z,99743.16
2023-05-16T07:31:07.929Z,99748.94
2023-05-16T07:31:48.179Z,99748.91
2023-05-16T07:32:28.975Z,99737.00
2023-05-16T07:33:09.135Z,99753.63
2023-05-16T07:33:49.950Z,99746.16
2023-05-16T07:34:30.002Z,99758.44
2023-05-16T07:35:10.937Z,99752.00
2023-05-16T07:36:15.531Z,99700.66
2023-05-16T07:37:07.981Z,99721.69
2023-05-16T07:37:48.164Z,99742.38
2023-05-16T07:38:33.667Z,99736.59
2023-05-16T07:39:17.572Z,99720.59
2023-05-16T07:39:58.013Z,99720.44
2023-05-16T07:40:41.096Z,99744.78
2023-05-16T07:41:21.950Z,99749.50
2023-05-16T07:42:02.038Z,99730.13
2023-05-16T07:42:48.158Z,99737.56
2023-05-16T07:43:30.351Z,99750.97
2023-05-16T07:44:10.928Z,99738.66
2023-05-16T07:44:55.046Z,99745.84
2023-05-16T07:45:41.020Z,99718.97
2023-05-16T07:46:21.090Z,99721.50
2023-05-16T07:47:01.868Z,99732.53
2023-05-16T07:47:45.017Z,99746.78
2023-05-16T07:48:25.077Z,99738.59
2023-05-16T07:49:04.985Z,99729.66
2023-05-16T07:49:45.906Z,99731.00
2023-05-16T07:50:25.988Z,99735.25
2023-05-16T07:51:08.933Z,99732.91
2023-05-16T07:51:49.011Z,99707.75
2023-05-16T07:52:28.938Z,99737.44
2023-05-16T07:53:09.617Z,99742.38
2023-05-16T07:53:50.916Z,99750.22
2023-05-16T07:54:31.498Z,99752.94
2023-05-16T07:55:12.855Z,99720.28
2023-05-16T07:55:53.293Z,99741.34
2023-05-16T07:56:32.934Z,99749.38
2023-05-16T07:57:13.128Z,99719.56
2023-05-16T07:58:04.953Z,99740.28
2023-05-16T07:58:46.159Z,99729.59
2023-05-16T07:59:25.903Z,99720.25
2023-05-16T08:00:10.136Z,99736.88
2023-05-16T08:00:50.076Z,99727.72
2023-05-16T08:01:33.160Z,99732.56
2023-05-16T08:03:14.969Z,99734.25
2023-05-16T08:03:56.504Z,99712.38
2023-05-16T08:04:44.969Z,99734.59
2023-05-16T08:05:22.074Z,99716.78
2023-05-16T08:06:09.910Z,99737.84
2023-05-16T08:06:46.997Z,99736.06
2023-05-16T08:07:36.896Z,99737.81
2023-05-16T08:08:11.004Z,99706.19
2023-05-16T08:09:01.040Z,99720.03
2023-05-16T08:09:35.024Z,99736.56
2023-05-16T08:10:18.781Z,99738.91
2023-05-16T08:11:01.953Z,99739.63
2023-05-16T08:11:46.863Z,99741.19
2023-05-16T08:12:41.970Z,99748.13
2023-05-16T08:13:21.919Z,99732.72
2023-05-16T08:14:05.177Z,99725.25
2023-05-16T08:14:45.888Z,99751.94
2023-05-16T08:15:35.296Z,99736.72
2023-05-16T08:16:28.949Z,99749.91
2023-05-16T08:17:25.740Z,99739.03
2023-05-16T08:18:31.906Z,99734.31
2023-05-16T08:19:26.010Z,99738.47
2023-05-16T08:20:23.626Z,99767.47
2023-05-16T08:21:04.876Z,99765.50
2023-05-16T08:21:47.811Z,99754.53
2023-05-16T08:22:27.848Z,99753.84
2023-05-16T08:23:10.173Z,99763.16
2023-05-16T08:23:50.939Z,99745.19
2023-05-16T08:24:37.355Z,99761.47
2023-05-16T08:25:18.876Z,99759.22
2023-05-16T08:26:01.763Z,99771.09
2023-05-16T08:26:43.902Z,99761.72
2023-05-16T08:27:26.700Z,99754.03
2023-05-16T08:28:08.859Z,99746.66
2023-05-16T08:28:51.679Z,99769.25
2023-05-16T08:29:32.852Z,99771.16
2023-05-16T08:30:16.025Z,99772.25
2023-05-16T08:30:55.908Z,99755.41
2023-05-16T08:31:36.080Z,99766.75
2023-05-16T08:32:18.902Z,99751.03